Time;durP1;ratioP1;P1;durP2;ratioP2;P2;SDS_P1;SDS_P2;PMS_P1;PMS_P2;Temp;Humidity;BMP_temperature;BMP_pressure;BME280_temperature;BME280_humidity;BME280_pressure;Samples;Min_cycle;Max_cycle;Signal;HPM_P1;HPM_P2
2023/03/27 04:01:19;;;;;;;0.10;0.10;;;1.80;99.90;;;;;;5467013;23;20226;-69
2023/03/27 04:03:46;;;;;;;0.10;0.10;;;1.80;99.90;;;;;;4914392;29;20309;-69
2023/03/27 04:06:16;;;;;;;0.90;0.90;;;1.80;99.90;;;;;;4922517;29;20211;-69
2023/03/27 04:08:43;;;;;;;0.10;0.10;;;1.80;99.90;;;;;;4927305;29;20202;-68
2023/03/27 04:11:10;;;;;;;0.10;0.10;;;1.80;99.90;;;;;;4904401;29;20230;-69
2023/03/27 04:13:37;;;;;;;0.10;0.10;;;1.80;99.90;;;;;;4900223;29;20219;-69
2023/03/27 04:16:04;;;;;;;0.30;0.30;;;1.70;99.90;;;;;;4897325;29;20215;-69
2023/03/27 04:18:33;;;;;;;0.30;0.30;;;1.70;99.90;;;;;;4904710;29;20242;-70
2023/03/27 04:21:01;;;;;;;0.15;0.15;;;1.70;99.90;;;;;;4903028;29;20738;-71
2023/03/27 04:23:29;;;;;;;0.43;0.43;;;1.70;99.90;;;;;;4899053;29;20207;-71
2023/03/27 04:25:58;;;;;;;0.35;0.35;;;1.70;99.90;;;;;;4901659;29;20810;-70
2023/03/27 04:28:25;;;;;;;0.10;0.10;;;1.70;99.90;;;;;;4898792;29;20344;-71
2023/03/27 04:30:53;;;;;;;0.73;0.40;;;1.70;99.90;;;;;;4893983;29;20234;-70
2023/03/27 04:33:21;;;;;;;2.88;0.68;;;1.70;99.90;;;;;;4908431;29;20214;-72
2023/03/27 04:35:51;;;;;;;0.20;0.20;;;1.70;99.90;;;;;;4893858;29;20589;-71
2023/03/27 04:38:19;;;;;;;1.05;0.32;;;1.70;99.90;;;;;;4893553;29;20577;-70
2023/03/27 04:40:48;;;;;;;0.40;0.40;;;1.70;99.90;;;;;;4898366;29;20231;-71
2023/03/27 04:43:14;;;;;;;1.85;0.75;;;1.70;99.90;;;;;;4902341;29;20211;-70
2023/03/27 04:45:43;;;;;;;0.40;0.30;;;1.70;99.90;;;;;;4893768;29;20216;-71
2023/03/27 04:48:10;;;;;;;0.47;0.25;;;1.70;99.90;;;;;;4894947;29;20233;-71
2023/03/27 04:50:37;;;;;;;0.20;0.20;;;1.70;99.90;;;;;;4906205;29;20630;-71
2023/03/27 04:53:05;;;;;;;0.10;0.10;;;1.70;99.90;;;;;;4904057;29;20213;-70
2023/03/27 04:55:36;;;;;;;0.10;0.10;;;1.70;99.90;;;;;;4896347;29;20223;-71
2023/03/27 04:58:03;;;;;;;0.10;0.10;;;1.70;99.90;;;;;;4899650;29;20637;-71
2023/03/27 05:00:30;;;;;;;0.20;0.20;;;1.70;99.90;;;;;;4894481;29;20218;-72
2023/03/27 05:02:57;;;;;;;0.38;0.38;;;1.70;99.90;;;;;;4906230;29;21040;-68
2023/03/27 05:05:24;;;;;;;1.38;0.40;;;1.70;99.90;;;;;;4906146;29;20213;-70
2023/03/27 05:07:50;;;;;;;0.10;0.10;;;1.70;99.90;;;;;;4896870;29;20251;-71
2023/03/27 05:10:19;;;;;;;0.22;0.22;;;1.70;99.90;;;;;;4901751;29;20207;-71
2023/03/27 05:12:47;;;;;;;0.50;0.50;;;1.70;99.90;;;;;;4900235;29;20211;-69
2023/03/27 05:15:15;;;;;;;0.85;0.85;;;1.70;99.90;;;;;;4901981;29;20206;-68
2023/03/27 05:17:43;;;;;;;0.45;0.45;;;1.70;99.90;;;;;;4901987;29;20207;-70
2023/03/27 05:20:15;;;;;;;0.50;0.50;;;1.80;99.90;;;;;;4900139;29;20230;-68
2023/03/27 05:22:43;;;;;;;0.32;0.32;;;1.70;99.90;;;;;;4917373;29;20238;-71
2023/03/27 05:25:10;;;;;;;0.30;0.30;;;1.80;99.90;;;;;;4915377;29;20270;-69
2023/03/27 05:27:44;;;;;;;0.55;0.55;;;1.80;99.90;;;;;;4895749;29;20227;-70
2023/03/27 05:30:12;;;;;;;0.90;0.90;;;1.80;99.90;;;;;;4898687;29;20226;-70
2023/03/27 05:32:38;;;;;;;0.82;0.82;;;1.80;99.90;;;;;;4891759;29;20215;-70
2023/03/27 05:35:06;;;;;;;0.20;0.20;;;1.90;99.90;;;;;;4891011;29;20211;-70
2023/03/27 05:37:33;;;;;;;0.15;0.15;;;1.80;99.90;;;;;;4890469;29;20215;-70
2023/03/27 05:39:59;;;;;;;0.55;0.55;;;1.90;99.90;;;;;;4900156;29;20207;-71
2023/03/27 05:42:26;;;;;;;0.10;0.10;;;1.90;99.90;;;;;;4901650;29;20238;-69
2023/03/27 05:44:54;;;;;;;0.10;0.10;;;1.90;99.90;;;;;;4888155;29;20212;-70
2023/03/27 05:47:21;;;;;;;1.50;1.40;;;2.00;99.90;;;;;;4894571;29;20211;-67
2023/03/27 05:49:48;;;;;;;0.55;0.55;;;2.00;99.90;;;;;;4903228;29;20770;-71
2023/03/27 05:52:14;;;;;;;0.10;0.10;;;2.00;99.90;;;;;;4906752;29;20605;-70
2023/03/27 05:54:41;;;;;;;0.20;0.20;;;2.00;99.90;;;;;;4900462;29;20215;-70
2023/03/27 05:57:08;;;;;;;0.30;0.30;;;2.10;99.90;;;;;;4889274;29;20236;-67
2023/03/27 05:59:35;;;;;;;0.20;0.20;;;2.10;99.90;;;;;;4902996;29;20219;-70
2023/03/27 06:02:03;;;;;;;0.20;0.20;;;2.10;99.90;;;;;;4886293;29;20251;-70
2023/03/27 06:04:30;;;;;;;0.55;0.32;;;2.20;99.90;;;;;;4889181;29;20234;-70
2023/03/27 06:06:56;;;;;;;1.20;0.57;;;2.20;99.90;;;;;;4889454;29;20357;-70
2023/03/27 06:09:24;;;;;;;0.20;0.20;;;2.30;99.90;;;;;;4899241;29;20227;-70
2023/03/27 06:11:51;;;;;;;0.60;0.60;;;2.30;99.90;;;;;;4901349;29;20235;-67
2023/03/27 06:14:18;;;;;;;0.20;0.20;;;2.40;99.90;;;;;;4893496;29;20223;-69
2023/03/27 06:16:45;;;;;;;0.10;0.10;;;2.50;99.90;;;;;;4901957;29;20226;-70
2023/03/27 06:19:13;;;;;;;0.82;0.50;;;2.50;99.90;;;;;;4906293;29;20224;-69
2023/03/27 06:21:40;;;;;;;0.20;0.20;;;2.60;99.90;;;;;;4903071;29;20234;-69
2023/03/27 06:24:07;;;;;;;0.55;0.55;;;2.60;99.90;;;;;;4890779;29;20486;-68
2023/03/27 06:26:34;;;;;;;0.32;0.32;;;2.70;99.90;;;;;;4894167;29;20219;-69
2023/03/27 06:29:03;;;;;;;0.77;0.77;;;2.70;99.90;;;;;;4896591;29;20597;-69
2023/03/27 06:31:30;;;;;;;50.05;2.15;;;2.70;99.90;;;;;;4894105;29;20231;-69
2023/03/27 06:33:57;;;;;;;1.55;0.63;;;2.80;99.90;;;;;;4894185;29;20203;-68
2023/03/27 06:36:26;;;;;;;0.10;0.10;;;2.90;99.90;;;;;;4900380;29;20262;-67
2023/03/27 06:38:55;;;;;;;0.10;0.10;;;2.90;99.90;;;;;;4893167;29;20668;-70
2023/03/27 06:41:22;;;;;;;1.50;1.50;;;3.00;99.90;;;;;;4905278;29;20227;-67
2023/03/27 06:43:49;;;;;;;0.10;0.10;;;3.00;99.90;;;;;;4885361;29;20270;-68
2023/03/27 06:46:16;;;;;;;0.25;0.25;;;3.10;99.90;;;;;;4893109;29;20330;-69
2023/03/27 06:48:42;;;;;;;0.20;0.20;;;3.10;99.90;;;;;;4896327;29;20226;-70
2023/03/27 06:51:09;;;;;;;4.22;0.75;;;3.20;99.90;;;;;;4899670;29;20584;-70
2023/03/27 06:53:37;;;;;;;0.50;0.50;;;3.30;99.90;;;;;;4900011;29;20215;-69
2023/03/27 06:56:04;;;;;;;0.73;0.73;;;3.30;99.90;;;;;;4890664;29;20220;-69
2023/03/27 06:58:31;;;;;;;2.35;1.38;;;3.40;99.90;;;;;;4890972;29;20668;-70
2023/03/27 07:00:58;;;;;;;1.05;1.05;;;3.50;99.90;;;;;;4895730;29;20235;-68
2023/03/27 07:03:25;;;;;;;2.17;2.17;;;3.50;99.90;;;;;;4894582;29;20207;-69
2023/03/27 07:05:52;;;;;;;0.52;0.52;;;3.60;99.90;;;;;;4899068;29;20230;-68
2023/03/27 07:08:19;;;;;;;1.20;0.80;;;3.70;99.90;;;;;;4892143;29;20204;-69
2023/03/27 07:10:47;;;;;;;0.30;0.30;;;3.70;99.90;;;;;;4896472;29;20235;-70
2023/03/27 07:13:15;;;;;;;0.20;0.20;;;3.80;99.90;;;;;;4902084;29;20211;-69
2023/03/27 07:15:42;;;;;;;6.28;1.08;;;3.80;99.90;;;;;;4889185;29;20559;-69
2023/03/27 07:18:09;;;;;;;2.95;1.02;;;3.80;99.90;;;;;;4897954;29;20223;-70
2023/03/27 07:20:36;;;;;;;1.10;1.10;;;3.90;99.90;;;;;;4895447;29;20247;-69
2023/03/27 07:23:04;;;;;;;0.70;0.70;;;4.00;99.90;;;;;;4898056;29;20207;-70
2023/03/27 07:25:36;;;;;;;0.20;0.20;;;4.00;99.90;;;;;;4901952;29;20207;-68
2023/03/27 07:28:05;;;;;;;0.75;0.75;;;4.00;99.90;;;;;;4910259;29;20282;-67
2023/03/27 07:30:31;;;;;;;0.20;0.20;;;4.10;99.90;;;;;;4902868;29;20207;-68
2023/03/27 07:32:58;;;;;;;0.25;0.25;;;4.20;99.90;;;;;;4897338;29;20211;-70
2023/03/27 07:35:25;;;;;;;0.22;0.22;;;4.30;99.90;;;;;;4900277;29;20631;-69
2023/03/27 07:37:53;;;;;;;0.20;0.20;;;4.30;99.90;;;;;;4905269;29;20207;-69
2023/03/27 07:40:21;;;;;;;0.95;0.50;;;4.40;99.90;;;;;;4903402;29;20270;-67
2023/03/27 07:42:49;;;;;;;1.50;1.45;;;4.50;99.90;;;;;;4890727;29;20259;-70
2023/03/27 07:45:17;;;;;;;0.45;0.45;;;4.80;99.90;;;;;;4899478;29;20210;-69
2023/03/27 07:47:45;;;;;;;0.28;0.28;;;5.00;99.90;;;;;;4895360;29;20225;-69
2023/03/27 07:50:13;;;;;;;0.50;0.50;;;5.10;99.90;;;;;;4905326;29;20231;-69
2023/03/27 07:52:42;;;;;;;0.30;0.30;;;5.00;99.90;;;;;;4896453;29;20211;-69
2023/03/27 07:55:11;;;;;;;0.43;0.43;;;4.80;99.90;;;;;;4898843;29;20305;-68
2023/03/27 07:57:43;;;;;;;0.63;0.63;;;4.80;99.90;;;;;;4891099;29;20588;-68
2023/03/27 08:00:13;;;;;;;1.63;1.52;;;4.70;99.90;;;;;;4902656;29;20207;-69
2023/03/27 08:02:42;;;;;;;0.32;0.32;;;4.50;99.90;;;;;;4898889;29;20215;-68
2023/03/27 08:05:10;;;;;;;0.38;0.38;;;4.40;99.90;;;;;;4902289;29;20564;-70
2023/03/27 08:07:38;;;;;;;0.60;0.60;;;4.30;99.90;;;;;;4900696;29;20219;-70
2023/03/27 08:10:07;;;;;;;0.40;0.40;;;4.30;99.90;;;;;;4894909;29;20264;-70
2023/03/27 08:12:35;;;;;;;1.20;0.50;;;4.30;99.90;;;;;;4903446;29;20250;-69
2023/03/27 08:15:02;;;;;;;0.32;0.32;;;4.20;99.90;;;;;;4913946;29;20852;-69
2023/03/27 08:17:31;;;;;;;0.32;0.32;;;4.20;99.90;;;;;;4898400;29;20282;-70
2023/03/27 08:20:00;;;;;;;0.32;0.32;;;4.20;99.90;;;;;;4905466;29;20211;-69
2023/03/27 08:22:27;;;;;;;0.73;0.73;;;4.30;99.90;;;;;;4892711;29;20235;-70
2023/03/27 08:24:54;;;;;;;0.25;0.25;;;4.30;99.90;;;;;;4891021;29;20218;-70
2023/03/27 08:27:21;;;;;;;1.85;0.30;;;4.30;99.90;;;;;;4893470;29;20214;-71
2023/03/27 08:29:48;;;;;;;0.63;0.63;;;4.40;99.90;;;;;;4891996;29;20242;-70
2023/03/27 08:32:15;;;;;;;0.63;0.63;;;4.60;99.90;;;;;;4893071;29;20234;-69
2023/03/27 08:34:42;;;;;;;0.10;0.10;;;4.70;99.90;;;;;;4893389;29;20208;-70
2023/03/27 08:37:10;;;;;;;2.92;0.95;;;4.80;99.90;;;;;;4880846;29;20528;-69
2023/03/27 08:39:37;;;;;;;0.30;0.30;;;4.80;99.90;;;;;;4888418;29;20208;-70
2023/03/27 08:42:07;;;;;;;5.00;0.88;;;4.90;99.90;;;;;;4892077;29;20612;-70
2023/03/27 08:44:35;;;;;;;1.10;0.95;;;5.10;99.90;;;;;;4898122;29;20281;-69
2023/03/27 08:47:06;;;;;;;0.73;0.73;;;5.20;99.90;;;;;;4903642;29;20258;-69
2023/03/27 08:49:35;;;;;;;2.15;0.63;;;5.30;99.90;;;;;;4905117;29;20231;-68
2023/03/27 08:52:05;;;;;;;1.55;0.60;;;5.40;99.90;;;;;;4902357;29;20231;-72
2023/03/27 08:54:36;;;;;;;0.32;0.32;;;5.50;99.90;;;;;;4895965;29;20207;-70
2023/03/27 08:57:06;;;;;;;0.77;0.77;;;5.70;99.90;;;;;;4896716;29;20725;-70
2023/03/27 08:59:33;;;;;;;2.20;1.30;;;5.80;99.90;;;;;;4896938;29;20249;-70
2023/03/27 09:02:10;;;;;;;0.40;0.40;;;5.80;99.90;;;;;;4897331;29;20239;-69
2023/03/27 09:04:44;;;;;;;0.40;0.40;;;5.80;99.90;;;;;;4905032;29;20357;-69
2023/03/27 09:07:14;;;;;;;4.72;0.73;;;5.90;99.90;;;;;;4905737;29;20202;-71
2023/03/27 09:09:54;;;;;;;0.20;0.20;;;5.80;99.90;;;;;;4896859;29;20235;-69
2023/03/27 09:12:39;;;;;;;3.20;0.40;;;5.70;99.90;;;;;;4905316;29;20720;-68
2023/03/27 09:15:11;;;;;;;0.30;0.30;;;5.60;99.90;;;;;;4897420;29;20206;-68
2023/03/27 09:17:43;;;;;;;0.32;0.32;;;5.50;99.90;;;;;;4898148;29;20192;-70
2023/03/27 09:20:16;;;;;;;0.82;0.82;;;5.50;99.90;;;;;;4896155;29;20199;-69
2023/03/27 09:22:48;;;;;;;0.70;0.70;;;5.50;99.90;;;;;;4895046;29;20280;-69
2023/03/27 09:25:24;;;;;;;0.95;0.95;;;5.50;99.90;;;;;;4896885;29;20239;-70
2023/03/27 09:27:51;;;;;;;1.17;1.08;;;5.60;99.90;;;;;;4879617;29;20701;-70
2023/03/27 09:30:23;;;;;;;7.93;1.08;;;5.70;99.90;;;;;;4896646;29;20233;-70
2023/03/27 09:32:53;;;;;;;0.10;0.10;;;5.90;99.90;;;;;;4889505;29;20219;-70
2023/03/27 09:35:21;;;;;;;1.95;1.00;;;6.00;99.90;;;;;;4904272;29;20218;-69
2023/03/27 09:37:52;;;;;;;0.82;0.82;;;6.00;99.90;;;;;;4879213;29;20570;-68
2023/03/27 09:40:29;;;;;;;2.72;2.17;;;6.00;99.90;;;;;;4890176;29;20204;-70
2023/03/27 09:42:56;;;;;;;3.80;1.15;;;6.00;99.90;;;;;;4899812;29;20215;-70
2023/03/27 09:45:22;;;;;;;0.65;0.65;;;6.10;99.90;;;;;;4912334;29;20217;-69
2023/03/27 09:47:58;;;;;;;0.52;0.20;;;6.20;99.90;;;;;;4908937;29;20214;-70
2023/03/27 09:50:29;;;;;;;0.43;0.43;;;6.30;99.90;;;;;;4903206;29;20226;-70
2023/03/27 09:53:08;;;;;;;6.63;3.00;;;6.20;99.90;;;;;;4909392;29;20691;-70
2023/03/27 09:55:48;;;;;;;0.40;0.40;;;6.20;99.90;;;;;;4914033;29;20206;-70
2023/03/27 09:58:20;;;;;;;1.00;0.25;;;6.40;99.90;;;;;;4904024;29;20215;-69
2023/03/27 10:00:47;;;;;;;0.40;0.25;;;6.60;99.90;;;;;;4908084;29;20235;-70
2023/03/27 10:03:16;;;;;;;2.15;0.45;;;6.70;99.90;;;;;;4900313;29;20575;-70
2023/03/27 10:05:44;;;;;;;0.45;0.45;;;6.70;99.90;;;;;;4904773;29;20230;-70
2023/03/27 10:08:31;;;;;;;0.20;0.20;;;6.90;99.90;;;;;;4893049;29;20213;-70
2023/03/27 10:11:00;;;;;;;0.20;0.20;;;6.70;99.90;;;;;;4897593;29;20233;-70
2023/03/27 10:13:28;;;;;;;1.38;1.27;;;6.80;99.90;;;;;;4892828;29;20246;-69
2023/03/27 10:15:59;;;;;;;0.82;0.82;;;6.70;99.90;;;;;;4897815;29;20218;-69
2023/03/27 10:18:28;;;;;;;0.73;0.73;;;6.70;99.90;;;;;;4908874;23;20243;-68
2023/03/27 10:20:58;;;;;;;0.20;0.20;;;6.70;99.90;;;;;;4870811;29;20216;-67
2023/03/27 10:23:26;;;;;;;0.20;0.20;;;6.70;99.90;;;;;;4875408;29;20318;-67
2023/03/27 10:25:57;;;;;;;0.75;0.75;;;6.60;99.90;;;;;;4875782;29;20258;-68
2023/03/27 10:28:28;;;;;;;1.55;0.75;;;6.60;99.90;;;;;;4867010;29;20231;-68
2023/03/27 10:30:59;;;;;;;0.20;0.20;;;6.50;99.90;;;;;;4876787;29;20212;-67
2023/03/27 10:33:31;;;;;;;0.38;0.38;;;7.30;99.90;;;;;;4884479;29;20275;-69
2023/03/27 10:35:59;;;;;;;0.20;0.20;;;6.50;99.90;;;;;;4873695;29;20204;-68
2023/03/27 10:38:26;;;;;;;0.35;0.35;;;6.50;99.90;;;;;;4871387;29;20327;-71
2023/03/27 10:40:55;;;;;;;0.40;0.40;;;6.50;99.90;;;;;;4869826;29;20208;-66
2023/03/27 10:43:28;;;;;;;0.50;0.50;;;6.60;99.90;;;;;;4878821;29;20331;-69
2023/03/27 10:45:58;;;;;;;0.40;0.40;;;6.80;99.90;;;;;;4874942;29;20620;-69
2023/03/27 10:48:38;;;;;;;0.90;0.88;;;6.80;99.90;;;;;;4883170;29;20271;-68
2023/03/27 10:51:08;;;;;;;0.20;0.20;;;6.90;99.90;;;;;;4874042;29;20223;-68
2023/03/27 10:53:40;;;;;;;0.50;0.50;;;7.00;99.90;;;;;;4875967;29;20258;-68
2023/03/27 10:56:14;;;;;;;2.85;2.05;;;7.00;99.90;;;;;;4879393;29;20657;-67
2023/03/27 10:58:49;;;;;;;0.88;0.88;;;7.00;99.90;;;;;;4884314;29;20232;-67
2023/03/27 11:01:25;;;;;;;0.35;0.22;;;7.10;99.90;;;;;;4885693;29;20668;-66
2023/03/27 11:03:57;;;;;;;0.30;0.30;;;7.00;99.90;;;;;;4877690;29;20252;-68
2023/03/27 11:06:29;;;;;;;0.88;0.40;;;7.10;99.90;;;;;;4869606;29;20231;-67
2023/03/27 11:09:04;;;;;;;0.20;0.20;;;7.20;99.90;;;;;;4877914;29;20239;-68
2023/03/27 11:11:36;;;;;;;0.60;0.25;;;7.50;99.90;;;;;;4873586;29;20227;-69
2023/03/27 11:14:11;;;;;;;0.40;0.40;;;7.60;99.90;;;;;;4874265;29;20212;-68
2023/03/27 11:16:40;;;;;;;0.20;0.20;;;7.70;99.90;;;;;;4871531;29;21853;-67
2023/03/27 11:19:24;;;;;;;5.57;1.42;;;7.70;99.90;;;;;;4877107;29;20287;-68
2023/03/27 11:21:56;;;;;;;0.52;0.30;;;7.60;99.90;;;;;;4883479;29;20219;-68
2023/03/27 11:24:30;;;;;;;0.90;0.88;;;7.60;99.90;;;;;;4882037;29;20208;-67
2023/03/27 11:27:04;;;;;;;0.17;0.17;;;7.30;99.90;;;;;;4876070;29;20210;-67
2023/03/27 11:29:37;;;;;;;1.17;0.63;;;7.20;99.90;;;;;;4870636;29;20589;-67
2023/03/27 11:32:15;;;;;;;0.90;0.90;;;6.90;99.90;;;;;;4882534;29;20229;-68
2023/03/27 11:34:48;;;;;;;1.35;0.82;;;6.10;99.90;;;;;;4885564;29;20211;-68
2023/03/27 11:37:21;;;;;;;0.30;0.30;;;5.50;99.90;;;;;;4895798;29;20199;-67
2023/03/27 11:39:52;;;;;;;0.20;0.20;;;4.80;99.90;;;;;;4887787;29;20214;-68
2023/03/27 11:42:23;;;;;;;0.25;0.25;;;4.20;99.90;;;;;;4876981;29;20269;-69
2023/03/27 11:44:52;;;;;;;1.58;1.05;;;3.80;99.90;;;;;;4873150;29;20204;-67
2023/03/27 11:47:43;;;;;;;0.10;0.10;;;3.60;99.90;;;;;;4873543;29;20216;-67
2023/03/27 11:50:26;;;;;;;1.55;1.35;;;3.40;99.90;;;;;;4890635;29;20227;-68
2023/03/27 11:53:10;;;;;;;0.40;0.40;;;3.50;99.90;;;;;;4882974;29;20212;-67
2023/03/27 11:55:47;;;;;;;0.10;0.10;;;3.50;99.90;;;;;;4892075;29;20211;-67
2023/03/27 11:58:25;;;;;;;0.68;0.68;;;3.50;99.90;;;;;;4872709;29;20326;-67
2023/03/27 12:01:06;;;;;;;1.58;0.52;;;3.70;99.90;;;;;;4872055;29;20235;-67
2023/03/27 12:04:03;;;;;;;1.95;1.85;;;3.80;99.90;;;;;;4869435;29;20223;-66
2023/03/27 12:06:34;;;;;;;2.08;0.82;;;3.90;99.90;;;;;;4875986;29;20220;-66
2023/03/27 12:09:20;;;;;;;2.60;0.63;;;4.10;99.90;;;;;;4887294;29;20230;-66
2023/03/27 12:11:55;;;;;;;0.30;0.30;;;4.20;99.90;;;;;;4895896;29;20219;-66
2023/03/27 12:14:45;;;;;;;0.30;0.30;;;4.20;99.90;;;;;;4897385;29;20218;-67
2023/03/27 12:17:28;;;;;;;0.40;0.40;;;4.40;99.90;;;;;;4889215;29;20208;-67
2023/03/27 12:20:22;;;;;;;0.30;0.30;;;4.50;99.90;;;;;;4877590;29;20211;-66
2023/03/27 12:22:58;;;;;;;0.20;0.20;;;4.60;99.90;;;;;;4861935;29;20209;-66
2023/03/27 12:25:41;;;;;;;0.10;0.10;;;4.70;99.90;;;;;;4878197;29;20223;-66
2023/03/27 12:28:31;;;;;;;1.30;0.40;;;4.70;99.90;;;;;;4878971;29;20242;-67
2023/03/27 12:31:05;;;;;;;0.25;0.25;;;4.80;99.90;;;;;;4872952;29;20665;-66
2023/03/27 12:33:45;;;;;;;0.30;0.30;;;4.90;99.90;;;;;;4887287;29;20235;-68
2023/03/27 12:36:14;;;;;;;0.30;0.30;;;5.00;99.90;;;;;;4879171;29;20691;-69
2023/03/27 12:38:43;;;;;;;0.10;0.10;;;5.00;99.90;;;;;;4876858;29;20228;-68
2023/03/27 12:41:21;;;;;;;0.50;0.40;;;4.90;99.90;;;;;;4877144;29;20230;-68
2023/03/27 12:43:53;;;;;;;0.10;0.10;;;4.90;99.90;;;;;;4878327;29;20603;-66
2023/03/27 12:46:31;;;;;;;0.10;0.10;;;5.00;99.90;;;;;;4880372;29;20204;-67
2023/03/27 12:49:04;;;;;;;0.10;0.10;;;5.10;99.90;;;;;;4878269;29;20231;-67
2023/03/27 12:51:42;;;;;;;0.10;0.10;;;5.20;99.90;;;;;;4884624;29;20666;-66
2023/03/27 12:54:23;;;;;;;0.20;0.20;;;5.20;99.90;;;;;;4888285;29;20242;-67
2023/03/27 12:56:51;;;;;;;0.20;0.20;;;5.30;99.90;;;;;;4871383;29;20303;-67
2023/03/27 12:59:22;;;;;;;0.30;0.30;;;5.30;99.90;;;;;;4880954;29;20597;-66
2023/03/27 13:02:31;;;;;;;0.20;0.20;;;5.40;99.90;;;;;;4880486;29;20199;-67
2023/03/27 13:05:23;;;;;;;0.10;0.10;;;5.50;99.90;;;;;;4866039;29;20212;-68
2023/03/27 13:07:59;;;;;;;2.05;0.68;;;5.50;99.90;;;;;;4875413;29;20238;-67
2023/03/27 13:10:43;;;;;;;0.20;0.20;;;5.60;99.90;;;;;;4880805;29;20712;-66
2023/03/27 13:13:39;;;;;;;1.35;0.20;;;5.60;99.90;;;;;;4878478;29;20208;-66
2023/03/27 13:16:22;;;;;;;0.35;0.35;;;5.70;99.90;;;;;;4875145;29;20216;-67
2023/03/27 13:19:00;;;;;;;0.45;0.40;;;5.80;99.90;;;;;;4870779;29;20738;-67
2023/03/27 13:21:38;;;;;;;0.20;0.20;;;5.90;99.90;;;;;;4865142;29;20213;-66
2023/03/27 13:24:18;;;;;;;0.43;0.43;;;6.40;99.90;;;;;;4877402;29;20641;-67
2023/03/27 13:27:01;;;;;;;0.10;0.10;;;6.50;99.90;;;;;;4882575;29;20211;-66
2023/03/27 13:29:32;;;;;;;0.30;0.30;;;6.60;99.90;;;;;;4889397;29;20235;-67
2023/03/27 13:32:02;;;;;;;0.30;0.30;;;6.90;99.90;;;;;;4888781;29;20224;-67
2023/03/27 13:34:39;;;;;;;0.30;0.30;;;7.10;99.90;;;;;;4882054;29;20292;-68
2023/03/27 13:37:40;;;;;;;2.53;2.38;;;7.30;99.90;;;;;;4889239;29;20223;-67
2023/03/27 13:40:23;;;;;;;0.20;0.20;;;7.40;99.90;;;;;;4885342;29;20279;-67
2023/03/27 13:42:53;;;;;;;1.08;0.60;;;7.60;99.90;;;;;;4877050;29;20204;-68
2023/03/27 13:45:23;;;;;;;0.43;0.43;;;7.80;99.90;;;;;;4888582;29;20203;-67
2023/03/27 13:48:12;;;;;;;0.10;0.10;;;7.80;99.90;;;;;;4881429;29;20231;-67
2023/03/27 13:51:05;;;;;;;1.55;0.30;;;7.80;99.90;;;;;;4881485;29;20315;-67
2023/03/27 13:53:50;;;;;;;0.73;0.40;;;7.80;99.90;;;;;;4885412;29;20211;-67
2023/03/27 13:56:45;;;;;;;1.33;1.05;;;7.80;99.90;;;;;;4873441;29;20976;-67
2023/03/27 13:59:37;;;;;;;0.10;0.10;;;8.00;99.90;;;;;;4876099;29;20541;-67
2023/03/27 14:02:27;;;;;;;0.20;0.20;;;8.00;99.90;;;;;;4875436;29;20220;-67
2023/03/27 14:05:22;;;;;;;1.15;0.65;;;7.80;99.90;;;;;;4868743;29;20219;-67
2023/03/27 14:08:05;;;;;;;0.25;0.25;;;7.70;99.90;;;;;;4873241;29;21970;-67
2023/03/27 14:10:55;;;;;;;0.43;0.40;;;7.40;99.90;;;;;;4882590;29;20319;-67
2023/03/27 14:13:33;;;;;;;0.50;0.50;;;6.90;99.90;;;;;;4871065;29;20232;-66
2023/03/27 14:16:43;;;;;;;0.93;0.93;;;5.90;99.90;;;;;;4876158;29;20204;-66
2023/03/27 14:19:32;;;;;;;0.10;0.10;;;5.50;99.90;;;;;;4884129;29;20339;-67
2023/03/27 14:22:02;;;;;;;0.20;0.20;;;5.10;99.90;;;;;;4876703;29;20701;-67
2023/03/27 14:24:33;;;;;;;0.95;0.25;;;5.00;99.90;;;;;;4880065;29;20664;-66
2023/03/27 14:27:01;;;;;;;0.57;0.57;;;4.90;99.90;;;;;;4884015;29;20616;-67
2023/03/27 14:29:31;;;;;;;2.05;1.95;;;5.00;99.90;;;;;;4876770;29;20251;-68
2023/03/27 14:32:02;;;;;;;0.65;0.65;;;5.00;99.90;;;;;;4876725;29;20251;-66
2023/03/27 14:34:30;;;;;;;0.20;0.20;;;5.10;99.90;;;;;;4877515;29;20386;-67
2023/03/27 14:36:57;;;;;;;0.10;0.10;;;5.20;99.90;;;;;;4875065;29;20215;-69
2023/03/27 14:39:26;;;;;;;0.10;0.10;;;5.30;99.90;;;;;;4876520;29;20223;-69
2023/03/27 14:41:55;;;;;;;0.20;0.20;;;5.40;99.90;;;;;;4884328;29;20200;-68
2023/03/27 14:44:23;;;;;;;0.20;0.20;;;5.60;99.90;;;;;;4875767;29;20210;-69
2023/03/27 14:47:00;;;;;;;0.20;0.20;;;5.60;99.90;;;;;;4884068;29;20250;-69
2023/03/27 14:49:34;;;;;;;0.10;0.10;;;5.70;99.90;;;;;;4884024;29;20270;-69
2023/03/27 14:52:06;;;;;;;0.30;0.30;;;5.80;99.90;;;;;;4876468;29;20243;-67
2023/03/27 14:54:34;;;;;;;0.55;0.55;;;5.90;99.90;;;;;;4876671;29;20961;-68
2023/03/27 14:57:04;;;;;;;0.10;0.10;;;6.00;99.90;;;;;;4883672;29;20226;-69
2023/03/27 14:59:34;;;;;;;0.20;0.20;;;6.20;99.90;;;;;;4885096;29;20222;-69
2023/03/27 15:02:06;;;;;;;0.20;0.20;;;6.20;99.90;;;;;;4880642;29;20345;-69
2023/03/27 15:04:37;;;;;;;2.20;0.70;;;6.30;99.90;;;;;;4891596;29;20298;-68
2023/03/27 15:07:17;;;;;;;1.33;1.05;;;6.40;99.90;;;;;;4882633;29;20211;-68
2023/03/27 15:09:44;;;;;;;1.05;1.02;;;6.60;99.90;;;;;;4884918;29;20683;-68
2023/03/27 15:12:11;;;;;;;0.40;0.40;;;6.70;99.90;;;;;;4881078;29;20235;-67
2023/03/27 15:14:39;;;;;;;1.20;1.10;;;6.70;99.90;;;;;;4883133;29;20208;-68
2023/03/27 15:17:13;;;;;;;0.77;0.77;;;6.80;99.90;;;;;;4877087;29;20551;-67
2023/03/27 15:19:44;;;;;;;0.60;0.60;;;6.90;99.90;;;;;;4886052;29;20310;-68
2023/03/27 15:22:16;;;;;;;0.60;0.60;;;6.90;99.90;;;;;;4884331;29;20556;-71
2023/03/27 15:24:47;;;;;;;0.30;0.30;;;6.90;99.90;;;;;;4888961;29;20219;-68
2023/03/27 15:27:19;;;;;;;1.25;0.68;;;6.70;99.90;;;;;;4879408;29;20231;-67
2023/03/27 15:29:50;;;;;;;1.45;0.30;;;6.70;99.90;;;;;;4880000;29;20249;-68
2023/03/27 15:32:20;;;;;;;0.20;0.20;;;6.70;99.90;;;;;;4875732;29;20235;-68
2023/03/27 15:34:50;;;;;;;2.67;0.30;;;6.60;99.90;;;;;;4879699;29;20207;-70
2023/03/27 15:37:22;;;;;;;0.10;0.10;;;6.60;99.90;;;;;;4874003;29;20567;-68
2023/03/27 15:40:00;;;;;;;0.17;0.17;;;6.60;99.90;;;;;;4871748;29;20212;-69
2023/03/27 15:42:43;;;;;;;0.20;0.20;;;6.50;99.90;;;;;;4873398;29;20208;-68
2023/03/27 15:45:11;;;;;;;3.65;0.30;;;6.50;99.90;;;;;;4874443;29;20590;-69
2023/03/27 15:47:39;;;;;;;0.30;0.30;;;6.50;99.90;;;;;;4871093;29;20240;-68
2023/03/27 15:50:16;;;;;;;0.52;0.30;;;6.60;99.90;;;;;;4888432;29;20289;-69
2023/03/27 15:52:48;;;;;;;0.55;0.35;;;6.60;99.90;;;;;;4884294;29;20310;-68
2023/03/27 15:55:37;;;;;;;0.10;0.10;;;6.70;99.90;;;;;;4875648;29;20676;-69
2023/03/27 15:58:15;;;;;;;1.38;0.80;;;6.70;99.90;;;;;;4886720;29;20238;-70
2023/03/27 16:00:47;;;;;;;0.50;0.20;;;6.70;99.90;;;;;;4877472;29;20274;-68
2023/03/27 16:03:21;;;;;;;1.75;0.73;;;6.80;99.90;;;;;;4865646;29;20208;-67
2023/03/27 16:05:48;;;;;;;0.10;0.10;;;6.80;99.90;;;;;;4873925;29;20223;-68
2023/03/27 16:08:23;;;;;;;0.10;0.10;;;6.90;99.90;;;;;;4878637;29;20228;-68
2023/03/27 16:10:49;;;;;;;0.20;0.20;;;6.90;99.90;;;;;;4880599;29;20208;-68
2023/03/27 16:13:26;;;;;;;3.50;1.50;;;6.80;99.90;;;;;;4863902;29;20219;-69
2023/03/27 16:15:57;;;;;;;1.20;1.20;;;6.80;99.90;;;;;;4867909;29;20230;-68
2023/03/27 16:18:30;;;;;;;1.25;0.50;;;6.80;99.90;;;;;;4876816;29;20236;-68
2023/03/27 16:21:06;;;;;;;9.82;5.30;;;6.70;99.90;;;;;;4880003;29;20204;-67
2023/03/27 16:23:33;;;;;;;8.95;6.45;;;6.60;99.90;;;;;;4866911;29;20250;-68
2023/03/27 16:26:01;;;;;;;3.30;1.10;;;6.60;99.90;;;;;;4888130;29;20210;-68
2023/03/27 16:28:29;;;;;;;0.20;0.20;;;6.50;99.90;;;;;;4881274;29;20228;-68
2023/03/27 16:30:57;;;;;;;0.40;0.40;;;6.40;99.90;;;;;;4879626;29;20247;-68
2023/03/27 16:33:27;;;;;;;0.30;0.30;;;6.40;99.90;;;;;;4881072;29;20236;-68
2023/03/27 16:35:55;;;;;;;1.70;1.33;;;6.40;99.90;;;;;;4861416;29;20317;-68
2023/03/27 16:38:22;;;;;;;1.55;0.88;;;6.30;99.90;;;;;;4882159;29;20654;-68
2023/03/27 16:40:49;;;;;;;0.20;0.20;;;6.20;99.90;;;;;;4878049;29;20535;-68
2023/03/27 16:43:16;;;;;;;0.22;0.22;;;6.00;99.90;;;;;;4879457;29;20223;-69
2023/03/27 16:45:44;;;;;;;0.10;0.10;;;5.80;99.90;;;;;;4884835;29;20217;-68
2023/03/27 16:48:12;;;;;;;0.10;0.10;;;5.50;99.90;;;;;;4883892;29;20317;-68
2023/03/27 16:50:40;;;;;;;0.90;0.90;;;5.40;99.90;;;;;;4879469;29;20567;-69
2023/03/27 16:53:07;;;;;;;0.10;0.10;;;5.30;99.90;;;;;;4870894;29;20231;-68
2023/03/27 16:55:34;;;;;;;0.20;0.20;;;5.30;99.90;;;;;;4870598;29;20212;-69
2023/03/27 16:58:01;;;;;;;0.20;0.20;;;5.50;99.90;;;;;;4887106;29;20231;-69
2023/03/27 17:00:28;;;;;;;1.80;1.63;;;5.30;99.90;;;;;;4883156;29;20308;-68
2023/03/27 17:02:55;;;;;;;0.10;0.10;;;5.30;99.90;;;;;;4887964;29;20208;-68
2023/03/27 17:05:21;;;;;;;4.88;0.75;;;5.40;99.90;;;;;;4876639;29;20219;-69
2023/03/27 17:07:50;;;;;;;0.15;0.15;;;5.40;99.90;;;;;;4889328;29;20517;-68
2023/03/27 17:10:16;;;;;;;1.55;0.45;;;5.40;99.90;;;;;;4885882;29;20601;-69
2023/03/27 17:12:43;;;;;;;0.47;0.47;;;5.40;99.90;;;;;;4889564;29;20230;-68
2023/03/27 17:15:10;;;;;;;0.10;0.10;;;5.40;99.90;;;;;;4890038;29;20233;-70
2023/03/27 17:17:37;;;;;;;0.20;0.20;;;5.40;99.90;;;;;;4887099;29;20257;-69
2023/03/27 17:20:06;;;;;;;0.40;0.40;;;5.30;99.90;;;;;;4884356;29;20665;-68
2023/03/27 17:22:33;;;;;;;0.10;0.10;;;5.30;99.90;;;;;;4891995;29;20203;-69